Flight Track Log - Related Links

Times and Time Zones

All times are in EDT time to prevent confusion due to time zone crossing. See the N700QA flight status page for this flight to view local times or setup timezone preferences in your user account.

Time Position Orientation Groundspeed Altitude Reporting Facility
EDT Latitude Longitude Course Direction KTS MPH feet Rate Location/Type
Wed 01:04:00 PM 40.1781 -114.4231 81° East  Level Estimated
Wed 01:05:00 PM 40.0878 -114.4878 81° East  Level Estimated
Wed 01:06:00 PM 39.9976 -114.5524 90° East  Level Estimated
Wed 01:06:39 PM 40.7147 -113.9331 209° Southwest 229 264 6,400  Level Salt Lake Center
Wed 01:07:00 PM 39.9073 -114.6169 187° South  Level Estimated
Wed 01:07:41 PM 40.7178 -113.8428 87° East 249 287 7,900  Level Salt Lake Center
Wed 01:08:00 PM 39.8169 -114.6811 180° South  Level Estimated
Wed 01:08:43 PM 40.7272 -113.7428 83° East 261 300 8,900  Level Salt Lake Center
Wed 01:09:00 PM 39.7266 -114.7452 180° South  Level Estimated
Wed 01:09:45 PM 40.7389 -113.6369 82° East 278 320 10,400  Level Salt Lake Center
Wed 01:10:00 PM 39.6362 -114.8091 180° South  Level Estimated
Wed 01:10:47 PM 40.6703 -113.5600 140° Southeast 291 335 12,000  Level Salt Lake Center
Wed 01:11:00 PM 39.5457 -114.8728 209° Southwest  Level Estimated
Wed 01:11:50 PM 40.5908 -113.5439 171° South 290 334 13,800  Level Salt Lake Center
Wed 01:12:52 PM 40.5128 -113.5281 171° South 288 331 15,600 1,790 Climbing Salt Lake Center
Wed 01:13:54 PM 40.4328 -113.5050 168° South 289 333 17,500 1,548 Climbing Salt Lake Center
Wed 01:14:56 PM 40.3264 -113.4789 169° South 305 351 18,800 1,403 Climbing Salt Lake Center
Wed 01:15:58 PM 40.2397 -113.4586 170° South 315 362 20,400 1,403 Climbing Salt Lake Center
Wed 01:17:00 PM 40.1469 -113.4364 170° South 330 380 21,700 1,210 Climbing Salt Lake Center
Wed 01:18:02 PM 40.0536 -113.4117 169° South 341 392 22,900 1,113 Climbing Salt Lake Center
Wed 01:19:04 PM 39.9606 -113.3903 170° South 340 391 24,000 1,016 Climbing Salt Lake Center
Wed 01:20:06 PM 39.8658 -113.3661 169° South 345 397 25,000 1,016 Climbing Salt Lake Center
Wed 01:21:08 PM 39.7503 -113.3389 170° South 352 405 26,100 919 Climbing Salt Lake Center
Wed 01:22:10 PM 39.6469 -113.3136 169° South 359 413 26,900 919 Climbing Salt Lake Center
Wed 01:23:12 PM 39.5464 -113.2900 170° South 364 419 28,000 871 Climbing Salt Lake Center
Wed 01:24:14 PM 39.4467 -113.2664 170° South 366 421 28,700 629 Climbing Salt Lake Center
Wed 01:25:16 PM 39.3461 -113.2411 169° South 368 423 29,300 677 Climbing Salt Lake Center
Wed 01:26:18 PM 39.2444 -113.2178 170° South 371 427 30,100 677 Climbing Salt Lake Center
Wed 01:27:20 PM 39.1419 -113.1933 170° South 373 429 30,700 871 Climbing Salt Lake Center
Wed 01:28:22 PM 39.0186 -113.1617 169° South 376 433 31,900 871 Climbing Salt Lake Center
Wed 01:29:24 PM 38.9175 -113.1397 170° South 371 427 32,500 581 Climbing Salt Lake Center
Wed 01:30:26 PM 38.8161 -113.1161 170° South 369 425 33,100 677 Climbing Salt Lake Center
Wed 01:31:28 PM 38.7147 -113.0928 170° South 371 427 33,900 435 Climbing Salt Lake Center
Wed 01:32:30 PM 38.6128 -113.0686 170° South 371 427 34,000 97 Climbing Salt Lake Center
Wed 01:33:32 PM 38.5078 -113.0450 170° South 380 437 34,100 48 Climbing Salt Lake Center
Wed 01:34:35 PM 38.3758 -113.0194 171° South 396 456 34,100  Level Salt Lake Center
Wed 01:35:37 PM 38.2797 -113.0808 207° Southwest 384 442 34,100  Level Salt Lake Center
Wed 01:36:39 PM 38.1883 -113.1508 211° Southwest 385 443 34,100  Level Salt Lake Center
Wed 01:37:41 PM 38.0978 -113.2239 212° Southwest 388 447 34,100 -48 Level Salt Lake Center
Wed 01:38:43 PM 38.0097 -113.2969 213° Southwest 382 440 34,000 -48 Descending Salt Lake Center
Wed 01:39:45 PM 37.9022 -113.3817 212° Southwest 382 440 34,000 48 Level Salt Lake Center
Wed 01:40:47 PM 37.8125 -113.4531 212° Southwest 383 441 34,100 48 Climbing Salt Lake Center
Wed 01:41:49 PM 37.7217 -113.5269 213° Southwest 387 445 34,100  Level Salt Lake Center
Wed 01:42:51 PM 37.6306 -113.5961 211° Southwest 386 444 34,100  Level Salt Lake Center
Wed 01:43:23 PM 37.5950 -113.6261 214° Southwest 389 448 34,100  Level Los Angeles Center
Wed 01:44:25 PM 37.4839 -113.7117 211° Southwest 391 450 34,100  Level Los Angeles Center
Wed 01:45:28 PM 37.3936 -113.7833 212° Southwest 386 444 34,100  Level Los Angeles Center
Wed 01:46:30 PM 37.3031 -113.8539 212° Southwest 385 443 34,100 -48 Level Los Angeles Center
Wed 01:47:32 PM 37.2094 -113.9272 212° Southwest 382 440 34,000 -48 Descending Los Angeles Center
Wed 01:48:34 PM 37.0997 -114.0114 211° Southwest 384 442 34,000  Level Los Angeles Center
Wed 01:49:36 PM 37.0114 -114.0842 213° Southwest 380 437 34,000  Level Los Angeles Center
Wed 01:50:38 PM 36.9203 -114.1542 212° Southwest 382 440 34,000  Level Los Angeles Center
Wed 01:51:40 PM 36.8292 -114.2250 212° Southwest 383 441 34,000  Level Los Angeles Center
Wed 01:52:42 PM 36.7375 -114.2942 211° Southwest 384 442 34,000  Level Los Angeles Center
Wed 01:53:44 PM 36.6456 -114.3636 211° Southwest 384 442 34,000  Level Los Angeles Center
Wed 01:54:47 PM 36.5542 -114.4331 211° Southwest 384 442 34,000  Level Los Angeles Center
Wed 01:56:13 PM 36.4264 -114.5300 211° Southwest 384 442 34,000  Level Los Angeles Center
Wed 01:57:16 PM 36.3175 -114.6147 212° Southwest 384 442 34,000  Level Los Angeles Center
Wed 01:58:18 PM 36.2267 -114.6853 212° Southwest 383 441 34,000  Level Los Angeles Center
Wed 01:59:20 PM 36.1347 -114.7539 211° Southwest 383 441 34,000  Level Los Angeles Center
Wed 02:00:22 PM 36.0431 -114.8250 212° Southwest 385 443 34,000  Level Los Angeles Center
Wed 02:01:24 PM 35.9594 -114.9092 219° Southwest 386 444 34,000  Level Los Angeles Center
Wed 02:02:26 PM 35.8708 -115.0289 228° Southwest 388 447 34,000  Level Los Angeles Center
Wed 02:03:28 PM 35.7989 -115.1283 228° Southwest 388 447 34,000  Level Los Angeles Center
Wed 02:04:30 PM 35.7250 -115.2289 228° Southwest 390 449 34,000  Level Los Angeles Center
Wed 02:05:33 PM 35.6519 -115.3294 228° Southwest 392 451 34,000  Level Los Angeles Center
Wed 02:06:35 PM 35.5781 -115.4267 227° Southwest 388 447 34,000  Level Los Angeles Center
Wed 02:07:37 PM 35.5047 -115.5258 228° Southwest 389 448 34,000 -435 Level Los Angeles Center
Wed 02:08:39 PM 35.4214 -115.6386 228° Southwest 393 452 33,100 -871 Descending Los Angeles Center
Wed 02:09:41 PM 35.3472 -115.7378 227° Southwest 394 453 32,200 -823 Descending Los Angeles Center
Wed 02:10:43 PM 35.2742 -115.8353 227° Southwest 390 449 31,400 -774 Descending Los Angeles Center
Wed 02:11:45 PM 35.2147 -115.9119 227° Southwest 389 448 30,600 -838 Descending Los Angeles Center
Wed 02:12:59 PM 35.1264 -116.0275 227° Southwest 388 447 29,500 -1,314 Descending Los Angeles Center
Wed 02:14:02 PM 35.0369 -116.1456 227° Southwest 393 452 27,600 -2,064 Descending Los Angeles Center
Wed 02:15:04 PM 34.9417 -116.2672 226° Southwest 407 468 25,200 -1,809 Descending Los Angeles Center
Wed 02:16:18 PM 34.8514 -116.3869 227° Southwest 404 465 23,500 -1,270 Descending Los Angeles Center
Wed 02:17:21 PM 34.8139 -116.4969 247° West 378 435 22,300 -672 Descending Los Angeles Center
Wed 02:18:23 PM 34.7967 -116.6236 261° West 379 436 22,100 -97 Descending Los Angeles Center
Wed 02:19:25 PM 34.7811 -116.7511 262° West 381 438 22,100  Level Los Angeles Center
Wed 02:20:27 PM 34.7675 -116.8789 263° West 383 441 22,100 -194 Level Los Angeles Center
Wed 02:21:29 PM 34.7503 -117.0331 262° West 382 440 21,700 -629 Descending Los Angeles Center
Wed 02:22:31 PM 34.7350 -117.1564 261° West 371 427 20,800 -794 Descending Los Angeles Center
Wed 02:23:45 PM 34.7208 -117.2797 262° West 367 422 19,900 -832 Descending Los Angeles Center
Wed 02:24:48 PM 34.7042 -117.4247 262° West 362 417 18,900 -876 Descending Los Angeles Center
Wed 02:26:02 PM 34.6869 -117.5672 262° West 356 410 17,900 -794 Descending Los Angeles Center
Wed 02:27:04 PM 34.6733 -117.6853 262° West 353 406 17,100 -1,368 Descending Los Angeles Center
Wed 02:28:18 PM 34.6339 -117.8197 250° West 349 402 14,800 -1,731 Descending Los Angeles Center
Wed 02:30:00 PM 34.6013 -118.0050 246° West  Level FlightAware Approximate
Wed 02:32:16 PM 34.5167 -118.2167 180° South 280 322 8,100  Level Southern California TRACON
Wed 02:33:17 PM 34.4667 -118.2667 220° Southwest 290 334 8,000 -47 Descending Southern California TRACON
Wed 02:34:23 PM 34.3833 -118.2667 180° South 284 327 8,000 -350 Level Southern California TRACON
Wed 02:35:17 PM 34.3000 -118.2667 180° South 275 316 7,300 -522 Descending Southern California TRACON
Wed 02:36:18 PM 34.2333 -118.2667 180° South 258 297 7,000 -843 Descending Southern California TRACON
Wed 02:37:00 PM 34.1884 -118.2833 180° South  Level FlightAware Approximate
Wed 02:37:18 PM 34.1667 -118.3000 202° Southwest 234 269 5,600  Level Southern California TRACON
Wed 02:38:18 PM 34.1333 -118.3333 220° Southwest 213 245 3,900 -1,550 Descending Southern California TRACON
Wed 02:39:18 PM 34.0833 -118.3833 220° Southwest 195 224 2,500 -1,350 Descending Southern California TRACON
Wed 02:40:18 PM 34.0500 -118.4167 220° Southwest 156 180 1,200 -1,041 Descending Southern California TRACON
Wed 02:41:19 PM 34.0167 -118.4500 220° Southwest 131 151 400 -787 Descending Southern California TRACON
Wed 02:43:00 PM 34.0158 -118.4513 244° Southwest  Level Estimated
Wed 02:50:00 PM 34.0158 -118.4513 244° Southwest  Level Estimated

Login

Don't have an account? Register now (free) for customized features, flight alerts, and more!